createdAt,value
2022-07-28T00:01:45.813Z,1.30
2022-07-28T00:04:15.121Z,1.10
2022-07-28T00:06:44.128Z,1.17
2022-07-28T00:09:12.963Z,1.27
2022-07-28T00:11:50.268Z,1.00
2022-07-28T00:14:23.912Z,1.10
2022-07-28T00:16:54.248Z,1.23
2022-07-28T00:19:23.297Z,1.37
2022-07-28T00:21:52.040Z,1.30
2022-07-28T00:24:20.851Z,1.60
2022-07-28T00:26:49.581Z,1.57
2022-07-28T00:29:18.592Z,1.50
2022-07-28T00:31:47.463Z,1.33
2022-07-28T00:34:18.283Z,1.37
2022-07-28T00:36:47.167Z,1.30
2022-07-28T00:39:16.448Z,1.33
2022-07-28T00:41:45.473Z,1.60
2022-07-28T00:44:14.646Z,1.63
2022-07-28T00:46:43.696Z,1.40
2022-07-28T00:49:12.930Z,1.67
2022-07-28T00:51:43.261Z,1.87
2022-07-28T00:54:12.452Z,1.40
2022-07-28T00:56:42.607Z,1.67
2022-07-28T00:59:11.561Z,1.40
2022-07-28T01:01:40.633Z,2.00
2022-07-28T01:04:09.922Z,1.83
2022-07-28T01:07:08.035Z,1.40
2022-07-28T01:09:49.972Z,2.10
2022-07-28T01:12:30.503Z,1.70
2022-07-28T01:15:08.997Z,1.53
2022-07-28T01:17:46.523Z,1.70
2022-07-28T01:20:19.565Z,1.63
2022-07-28T01:23:03.199Z,1.90
2022-07-28T01:25:49.792Z,2.07
2022-07-28T01:28:28.520Z,1.83
2022-07-28T01:31:04.169Z,1.50
2022-07-28T01:33:36.662Z,1.57
2022-07-28T01:36:10.996Z,1.60
2022-07-28T01:38:40.865Z,1.80
2022-07-28T01:41:14.089Z,1.77
2022-07-28T01:43:47.222Z,1.73
2022-07-28T01:46:19.077Z,1.90
2022-07-28T01:48:49.151Z,1.90
2022-07-28T01:51:18.872Z,1.77
2022-07-28T01:53:49.398Z,2.07
2022-07-28T01:56:20.755Z,1.70
2022-07-28T01:58:53.479Z,1.43
2022-07-28T02:01:26.863Z,1.43
2022-07-28T02:03:58.030Z,1.97
2022-07-28T02:06:27.701Z,1.80
2022-07-28T02:08:57.824Z,2.03
2022-07-28T02:11:44.667Z,1.53
2022-07-28T02:14:17.876Z,1.80
2022-07-28T02:16:51.785Z,1.80
2022-07-28T02:19:22.747Z,1.97
2022-07-28T02:21:52.700Z,1.60
2022-07-28T02:24:26.677Z,2.03
2022-07-28T02:27:01.035Z,2.00
2022-07-28T02:29:50.415Z,1.77
2022-07-28T02:32:28.591Z,1.80
2022-07-28T02:35:02.679Z,2.00
2022-07-28T02:37:36.301Z,1.80
2022-07-28T02:40:07.992Z,1.93
2022-07-28T02:42:38.132Z,1.70
2022-07-28T02:45:10.350Z,1.63
2022-07-28T02:47:45.631Z,2.40
2022-07-28T02:50:18.134Z,2.10
2022-07-28T02:52:48.383Z,1.87
2022-07-28T02:55:19.100Z,1.70
2022-07-28T02:57:52.063Z,1.83
2022-07-28T03:00:25.869Z,1.70
2022-07-28T03:02:57.421Z,1.97
2022-07-28T03:05:26.995Z,2.00
2022-07-28T03:07:57.964Z,1.90
2022-07-28T03:10:34.244Z,1.60
2022-07-28T03:13:04.248Z,1.60
2022-07-28T03:15:33.530Z,1.90
2022-07-28T03:18:05.332Z,2.00
2022-07-28T03:20:35.099Z,1.63
2022-07-28T03:23:04.501Z,1.70
2022-07-28T03:25:40.823Z,1.80
2022-07-28T03:28:15.250Z,1.60
2022-07-28T03:30:49.831Z,1.53
2022-07-28T03:33:20.467Z,1.50
2022-07-28T03:35:53.159Z,1.87
2022-07-28T03:38:25.303Z,1.73
2022-07-28T03:40:55.680Z,1.80
2022-07-28T03:43:27.723Z,1.50
2022-07-28T03:45:57.096Z,1.90
2022-07-28T03:48:32.020Z,2.03
2022-07-28T03:51:02.534Z,1.80
2022-07-28T03:53:31.390Z,1.57
2022-07-28T03:56:00.168Z,2.00
2022-07-28T03:58:29.858Z,1.80
2022-07-28T04:00:59.592Z,2.10
2022-07-28T04:03:42.236Z,1.90
2022-07-28T04:06:15.524Z,1.67
2022-07-28T04:08:45.070Z,1.73
2022-07-28T04:11:14.161Z,1.70
2022-07-28T04:13:43.331Z,1.50
2022-07-28T04:16:12.171Z,2.07
2022-07-28T04:18:41.016Z,1.60
2022-07-28T04:21:09.837Z,1.93
2022-07-28T04:23:40.181Z,1.60
2022-07-28T04:26:09.048Z,1.60
2022-07-28T04:28:37.807Z,1.70
2022-07-28T04:31:06.663Z,2.03
2022-07-28T04:33:35.500Z,1.93
2022-07-28T04:36:04.435Z,1.77
2022-07-28T04:38:33.224Z,2.00
2022-07-28T04:41:03.679Z,1.40
2022-07-28T04:43:32.532Z,1.77
2022-07-28T04:46:01.461Z,1.70
2022-07-28T04:48:30.324Z,1.40
2022-07-28T04:50:59.208Z,1.77
2022-07-28T04:53:28.706Z,1.60
2022-07-28T04:55:57.781Z,1.80
2022-07-28T04:58:27.999Z,1.67
2022-07-28T05:00:59.956Z,1.50
2022-07-28T05:03:32.724Z,1.60
2022-07-28T05:06:05.258Z,1.70
2022-07-28T05:08:33.969Z,2.00
2022-07-28T05:11:02.861Z,2.10
2022-07-28T05:13:34.498Z,1.90
2022-07-28T05:16:03.983Z,1.50
2022-07-28T05:18:32.833Z,1.90
2022-07-28T05:21:01.792Z,1.40
2022-07-28T05:23:30.661Z,1.60
2022-07-28T05:25:59.623Z,1.77
2022-07-28T05:28:28.423Z,1.50
2022-07-28T05:30:58.937Z,1.53
2022-07-28T05:33:31.810Z,1.40
2022-07-28T05:36:01.008Z,1.80
2022-07-28T05:38:30.590Z,1.80
2022-07-28T05:41:00.157Z,2.10
2022-07-28T05:43:28.836Z,3.10
2022-07-28T05:45:59.276Z,2.90
2022-07-28T05:48:28.194Z,2.43
2022-07-28T05:50:57.048Z,3.23
2022-07-28T05:53:26.020Z,2.57
2022-07-28T05:55:59.746Z,1.90
2022-07-28T05:58:30.809Z,2.00
2022-07-28T06:01:05.088Z,2.07
2022-07-28T06:03:41.509Z,1.73
2022-07-28T06:06:15.637Z,1.90
2022-07-28T06:08:47.323Z,2.40
2022-07-28T06:11:22.245Z,2.03
2022-07-28T06:13:52.992Z,2.57
2022-07-28T06:16:24.206Z,2.30
2022-07-28T06:18:53.310Z,2.10
2022-07-28T06:21:25.353Z,2.67
2022-07-28T06:23:54.190Z,2.58
2022-07-28T06:26:23.771Z,2.65
2022-07-28T06:28:53.310Z,2.83
2022-07-28T06:31:23.633Z,2.22
2022-07-28T06:33:52.440Z,2.20
2022-07-28T06:36:21.248Z,1.77
2022-07-28T06:38:50.067Z,2.00
2022-07-28T06:41:19.925Z,1.92
2022-07-28T06:43:48.730Z,1.70
2022-07-28T06:46:19.769Z,1.60
2022-07-28T06:48:50.496Z,1.90
2022-07-28T06:51:20.442Z,1.80
2022-07-28T06:53:50.285Z,2.22
2022-07-28T06:56:21.417Z,1.50
2022-07-28T06:58:50.508Z,1.75
2022-07-28T07:01:19.312Z,1.92
2022-07-28T07:03:49.720Z,1.95
2022-07-28T07:06:18.605Z,2.20
2022-07-28T07:08:48.645Z,2.05
2022-07-28T07:11:17.639Z,2.47
2022-07-28T07:13:46.490Z,2.00
2022-07-28T07:16:15.705Z,1.83
2022-07-28T07:18:44.596Z,2.00
2022-07-28T07:21:14.895Z,2.58
2022-07-28T07:23:43.675Z,2.10
2022-07-28T07:26:14.111Z,2.13
2022-07-28T07:28:43.060Z,2.13
2022-07-28T07:31:12.022Z,1.75
2022-07-28T07:33:40.864Z,1.90
2022-07-28T07:36:09.763Z,1.70
2022-07-28T07:38:40.038Z,1.80
2022-07-28T07:41:09.015Z,2.03
2022-07-28T07:43:37.929Z,1.90
2022-07-28T07:46:08.580Z,1.33
2022-07-28T07:48:37.536Z,1.20
2022-07-28T07:51:10.717Z,1.20
2022-07-28T07:53:45.470Z,1.08
2022-07-28T07:56:14.866Z,1.10
2022-07-28T07:58:43.614Z,1.08
2022-07-28T08:01:13.813Z,0.98
2022-07-28T08:03:43.979Z,1.10
2022-07-28T08:06:13.049Z,0.80
2022-07-28T08:08:48.465Z,1.13
2022-07-28T08:11:17.598Z,1.42
2022-07-28T08:13:46.390Z,1.20
2022-07-28T08:16:15.376Z,0.80
2022-07-28T08:18:45.029Z,0.93
2022-07-28T08:21:14.907Z,0.90
2022-07-28T08:23:43.635Z,0.90
2022-07-28T08:26:13.912Z,1.00
2022-07-28T08:28:42.668Z,1.17
2022-07-28T08:31:11.977Z,0.90
2022-07-28T08:33:53.505Z,0.90
2022-07-28T08:36:23.665Z,0.77
2022-07-28T08:38:52.346Z,0.90
2022-07-28T08:41:33.820Z,0.77
2022-07-28T08:44:05.172Z,0.95
2022-07-28T08:46:37.758Z,1.00
2022-07-28T08:49:09.765Z,0.82
2022-07-28T08:51:39.587Z,0.95
2022-07-28T08:54:09.095Z,0.90
2022-07-28T08:56:47.710Z,0.90
2022-07-28T08:59:17.128Z,0.70
2022-07-28T09:01:47.185Z,0.90
2022-07-28T09:04:17.478Z,1.00
2022-07-28T09:06:47.017Z,0.90
2022-07-28T09:09:16.524Z,1.00
2022-07-28T09:11:46.775Z,0.98
2022-07-28T09:14:15.819Z,0.82
2022-07-28T09:16:44.953Z,0.80
2022-07-28T09:19:13.703Z,1.10
2022-07-28T09:21:44.650Z,0.82
2022-07-28T09:24:34.235Z,1.00
2022-07-28T09:27:08.122Z,1.15
2022-07-28T09:29:37.751Z,0.95
2022-07-28T09:32:07.816Z,1.08
2022-07-28T09:34:45.485Z,0.95
2022-07-28T09:37:24.943Z,1.05
2022-07-28T09:39:59.487Z,1.10
2022-07-28T09:42:47.260Z,0.90
2022-07-28T09:45:24.302Z,1.00
2022-07-28T09:48:11.315Z,0.88
2022-07-28T09:50:41.723Z,1.00
2022-07-28T09:53:23.173Z,0.90
2022-07-28T09:56:00.613Z,0.90
2022-07-28T09:58:32.682Z,0.80
2022-07-28T10:01:09.680Z,0.93
2022-07-28T10:03:43.099Z,1.02
2022-07-28T10:06:16.879Z,1.00
2022-07-28T10:08:48.053Z,0.90
2022-07-28T10:11:18.566Z,1.10
2022-07-28T10:13:57.305Z,0.75
2022-07-28T10:16:27.675Z,1.02
2022-07-28T10:18:57.490Z,1.25
2022-07-28T10:21:27.775Z,1.20
2022-07-28T10:23:58.254Z,0.88
2022-07-28T10:26:32.932Z,0.90
2022-07-28T10:29:07.532Z,1.00
2022-07-28T10:31:40.507Z,0.90
2022-07-28T10:34:16.070Z,0.90
2022-07-28T10:36:46.011Z,1.00
2022-07-28T10:39:19.920Z,1.10
2022-07-28T10:41:49.227Z,1.15
2022-07-28T10:44:21.200Z,0.90
2022-07-28T10:46:51.312Z,1.10
2022-07-28T10:49:21.410Z,0.95
2022-07-28T10:52:02.413Z,1.10
2022-07-28T10:54:44.623Z,1.00
2022-07-28T10:57:18.023Z,1.00
2022-07-28T11:00:12.914Z,1.10
2022-07-28T11:02:48.884Z,1.10
2022-07-28T11:05:41.913Z,1.00
2022-07-28T11:08:29.011Z,1.30
2022-07-28T11:11:07.460Z,1.00
2022-07-28T11:13:41.171Z,0.90
2022-07-28T11:16:22.883Z,1.95
2022-07-28T11:19:40.102Z,1.75
2022-07-28T11:22:25.187Z,1.08
2022-07-28T11:25:19.756Z,1.08
2022-07-28T11:28:08.283Z,0.98
2022-07-28T11:30:53.636Z,1.30
2022-07-28T11:33:25.227Z,1.40
2022-07-28T11:35:57.332Z,1.30
2022-07-28T11:38:26.214Z,1.40
2022-07-28T11:40:57.623Z,1.52
2022-07-28T11:43:38.888Z,1.60
2022-07-28T11:46:24.960Z,1.55
2022-07-28T11:49:25.242Z,2.65
2022-07-28T11:52:17.596Z,1.42
2022-07-28T11:54:56.728Z,1.60
2022-07-28T11:57:29.667Z,1.60
2022-07-28T12:00:01.154Z,1.45
2022-07-28T12:02:32.360Z,1.08
2022-07-28T12:05:09.637Z,1.40
2022-07-28T12:07:41.564Z,1.38
2022-07-28T12:13:29.213Z,1.35
2022-07-28T12:15:58.693Z,1.30
2022-07-28T12:18:27.581Z,1.30
2022-07-28T12:21:03.084Z,1.20
2022-07-28T12:23:45.897Z,1.30
2022-07-28T12:26:40.954Z,1.40
2022-07-28T12:29:13.797Z,1.67
2022-07-28T12:31:54.437Z,1.40
2022-07-28T12:34:28.907Z,1.55
2022-07-28T12:37:03.306Z,1.02
2022-07-28T12:39:34.617Z,1.05
2022-07-28T12:42:05.490Z,1.10
2022-07-28T12:44:35.860Z,1.23
2022-07-28T12:47:06.611Z,0.90
2022-07-28T12:49:36.748Z,1.33
2022-07-28T12:52:22.553Z,0.98
2022-07-28T12:54:54.934Z,1.50
2022-07-28T12:57:48.817Z,1.08
2022-07-28T13:00:23.619Z,1.20
2022-07-28T13:02:56.564Z,1.20
2022-07-28T13:05:33.067Z,1.33
2022-07-28T13:08:05.858Z,1.08
2022-07-28T13:10:35.063Z,1.17
2022-07-28T13:13:06.897Z,1.08
2022-07-28T13:15:35.851Z,1.00
2022-07-28T13:18:05.283Z,1.10
2022-07-28T13:20:48.968Z,0.98
2022-07-28T13:23:19.518Z,1.10
2022-07-28T13:25:48.454Z,0.88
2022-07-28T13:28:28.027Z,0.80
2022-07-28T13:30:57.291Z,0.90
2022-07-28T13:33:27.170Z,1.10
2022-07-28T13:35:57.431Z,1.05
2022-07-28T13:38:27.732Z,1.15
2022-07-28T13:40:56.613Z,1.10
2022-07-28T13:43:35.711Z,1.50
2022-07-28T13:46:05.570Z,1.00
2022-07-28T13:48:36.167Z,1.27
2022-07-28T13:51:05.199Z,1.40
2022-07-28T13:53:39.467Z,1.00
2022-07-28T13:56:09.515Z,1.05
2022-07-28T13:58:38.902Z,1.23
2022-07-28T14:01:12.652Z,1.20
2022-07-28T14:03:57.841Z,1.20
2022-07-28T14:06:27.206Z,0.90
2022-07-28T14:08:57.819Z,1.17
2022-07-28T14:11:27.301Z,1.05
2022-07-28T14:13:56.290Z,1.75
2022-07-28T14:16:25.572Z,1.15
2022-07-28T14:18:54.468Z,1.10
2022-07-28T14:21:23.655Z,0.90
2022-07-28T14:23:52.549Z,1.20
2022-07-28T14:26:35.317Z,1.00
2022-07-28T14:29:11.787Z,1.20
2022-07-28T14:31:40.900Z,0.90
2022-07-28T14:34:10.424Z,1.02
2022-07-28T14:36:39.440Z,0.80
2022-07-28T14:39:12.464Z,1.00
2022-07-28T14:41:44.613Z,0.95
2022-07-28T14:44:15.412Z,1.17
2022-07-28T14:46:52.821Z,1.27
2022-07-28T14:49:21.699Z,1.80
2022-07-28T14:51:50.721Z,0.80
2022-07-28T14:54:19.658Z,1.10
2022-07-28T14:56:50.098Z,1.00
2022-07-28T14:59:18.899Z,1.27
2022-07-28T15:01:48.874Z,0.82
2022-07-28T15:04:18.545Z,1.33
2022-07-28T15:06:48.302Z,0.90
2022-07-28T15:09:17.435Z,1.42
2022-07-28T15:11:47.568Z,0.93
2022-07-28T15:14:21.141Z,1.05
2022-07-28T15:16:51.751Z,0.95
2022-07-28T15:19:20.509Z,0.90
2022-07-28T15:21:49.332Z,1.10
2022-07-28T15:24:19.561Z,1.15
2022-07-28T15:26:48.424Z,1.35
2022-07-28T15:29:19.971Z,1.08
2022-07-28T15:31:50.532Z,1.10
2022-07-28T15:34:19.752Z,1.25
2022-07-28T15:36:48.930Z,1.60
2022-07-28T15:39:17.767Z,1.45
2022-07-28T15:41:47.627Z,1.30
2022-07-28T15:44:22.389Z,1.10
2022-07-28T15:46:55.289Z,1.80
2022-07-28T15:49:24.196Z,1.65
2022-07-28T15:51:53.028Z,1.95
2022-07-28T15:54:21.784Z,1.95
2022-07-28T15:56:50.581Z,1.63
2022-07-28T15:59:20.724Z,1.35
2022-07-28T16:01:49.570Z,2.05
2022-07-28T16:04:18.853Z,2.15
2022-07-28T16:07:05.236Z,2.20
2022-07-28T16:09:46.429Z,1.85
2022-07-28T16:12:15.975Z,1.50
2022-07-28T16:14:46.654Z,2.20
2022-07-28T16:17:15.766Z,2.20
2022-07-28T16:19:49.899Z,1.80
2022-07-28T16:22:20.271Z,1.58
2022-07-28T16:24:51.024Z,1.70
2022-07-28T16:27:19.847Z,1.88
2022-07-28T16:29:51.088Z,1.83
2022-07-28T16:32:19.961Z,1.50
2022-07-28T16:34:49.405Z,1.50
2022-07-28T16:37:19.782Z,1.52
2022-07-28T16:39:49.559Z,1.70
2022-07-28T16:42:18.616Z,1.80
2022-07-28T16:44:48.915Z,1.50
2022-07-28T16:47:19.388Z,1.50
2022-07-28T16:49:48.175Z,1.73
2022-07-28T16:52:17.194Z,4.60
2022-07-28T16:54:45.951Z,1.67
2022-07-28T16:57:16.533Z,1.42
2022-07-28T16:59:48.491Z,1.67
2022-07-28T17:02:20.268Z,1.50
2022-07-28T17:04:49.373Z,1.40
2022-07-28T17:07:18.732Z,1.85
2022-07-28T17:09:47.602Z,1.00
2022-07-28T17:12:16.394Z,1.42
2022-07-28T17:14:45.189Z,1.55
2022-07-28T17:17:13.962Z,1.25
2022-07-28T17:19:46.611Z,1.00
2022-07-28T17:22:16.228Z,0.85
2022-07-28T17:24:44.903Z,0.98
2022-07-28T17:30:02.650Z,1.20
2022-07-28T17:32:31.539Z,1.10
2022-07-28T17:35:01.935Z,1.00
2022-07-28T17:37:31.694Z,1.00
2022-07-28T17:40:01.240Z,1.10
2022-07-28T17:42:34.827Z,1.20
2022-07-28T17:45:03.630Z,0.90
2022-07-28T17:47:36.179Z,1.02
2022-07-28T17:50:10.028Z,1.15
2022-07-28T17:52:38.828Z,0.85
2022-07-28T17:55:25.880Z,1.10
2022-07-28T17:57:57.122Z,1.50
2022-07-28T18:00:25.845Z,1.27
2022-07-28T18:02:54.646Z,1.30
2022-07-28T18:05:24.830Z,1.48
2022-07-28T18:07:59.088Z,1.63
2022-07-28T18:10:28.361Z,1.60
2022-07-28T18:12:57.255Z,1.80
2022-07-28T18:15:26.081Z,1.73
2022-07-28T18:17:56.168Z,1.45
2022-07-28T18:20:26.759Z,1.40
2022-07-28T18:22:57.563Z,1.63
2022-07-28T18:25:26.704Z,1.38
2022-07-28T18:27:55.576Z,1.50
2022-07-28T18:30:25.055Z,1.25
2022-07-28T18:32:54.183Z,1.50
2022-07-28T18:35:24.132Z,1.10
2022-07-28T18:37:54.431Z,1.40
2022-07-28T18:40:24.148Z,1.70
2022-07-28T18:42:53.300Z,2.22
2022-07-28T18:45:22.139Z,1.73
2022-07-28T18:47:53.405Z,2.63
2022-07-28T18:50:27.877Z,1.52
2022-07-28T18:53:02.069Z,1.98
2022-07-28T18:55:30.938Z,1.60
2022-07-28T18:58:00.726Z,1.70
2022-07-28T19:00:29.494Z,1.50
2022-07-28T19:02:58.381Z,1.67
2022-07-28T19:05:27.358Z,1.33
2022-07-28T19:08:07.599Z,1.30
2022-07-28T19:10:36.864Z,1.27
2022-07-28T19:13:05.855Z,1.60
2022-07-28T19:15:41.417Z,1.25
2022-07-28T19:18:12.046Z,1.27
2022-07-28T19:20:41.669Z,1.50
2022-07-28T19:23:14.129Z,1.10
2022-07-28T19:25:45.153Z,1.45
2022-07-28T19:28:14.099Z,1.30
2022-07-28T19:30:44.018Z,1.20
2022-07-28T19:33:18.644Z,1.50
2022-07-28T19:35:48.023Z,1.13
2022-07-28T19:38:18.209Z,1.30
2022-07-28T19:40:47.159Z,1.95
2022-07-28T19:43:15.870Z,1.67
2022-07-28T19:45:44.818Z,1.65
2022-07-28T19:48:13.628Z,1.20
2022-07-28T19:50:49.963Z,1.20
2022-07-28T19:53:25.061Z,1.40
2022-07-28T19:55:55.131Z,1.60
2022-07-28T19:58:24.665Z,1.33
2022-07-28T20:00:54.029Z,1.08
2022-07-28T20:04:00.966Z,1.13
2022-07-28T20:06:14.684Z,1.25
2022-07-28T20:08:44.910Z,1.20
2022-07-28T20:11:14.882Z,1.33
2022-07-28T20:13:43.700Z,1.20
2022-07-28T20:16:12.540Z,1.10
2022-07-28T20:18:41.282Z,1.20
2022-07-28T20:21:10.305Z,0.95
2022-07-28T20:23:41.147Z,0.95
2022-07-28T20:26:11.455Z,1.13
2022-07-28T20:28:40.218Z,1.15
2022-07-28T20:31:13.576Z,1.30
2022-07-28T20:33:45.264Z,1.23
2022-07-28T20:36:14.084Z,1.15
2022-07-28T20:38:42.840Z,1.35
2022-07-28T20:41:13.262Z,1.10
2022-07-28T20:43:42.157Z,1.15
2022-07-28T20:46:11.005Z,1.13
2022-07-28T20:48:39.988Z,1.25
2022-07-28T20:51:08.763Z,1.23
2022-07-28T20:53:37.647Z,1.05
2022-07-28T20:56:06.999Z,1.00
2022-07-28T20:58:37.416Z,1.20
2022-07-28T21:01:06.302Z,1.00
2022-07-28T21:03:35.259Z,1.10
2022-07-28T21:06:04.043Z,1.35
2022-07-28T21:08:33.169Z,1.10
2022-07-28T21:11:02.048Z,1.10
2022-07-28T21:13:31.703Z,0.90
2022-07-28T21:16:01.966Z,1.10
2022-07-28T21:18:30.727Z,1.10
2022-07-28T21:20:59.719Z,1.17
2022-07-28T21:23:28.506Z,1.20
2022-07-28T21:25:57.357Z,1.20
2022-07-28T21:28:43.383Z,1.10
2022-07-28T21:31:13.719Z,1.07
2022-07-28T21:33:42.499Z,1.30
2022-07-28T21:36:11.356Z,1.47
2022-07-28T21:38:40.143Z,1.10
2022-07-28T21:41:09.205Z,1.27
2022-07-28T21:43:37.999Z,1.00
2022-07-28T21:46:06.911Z,0.90
2022-07-28T21:48:37.212Z,1.20
2022-07-28T21:51:16.792Z,1.10
2022-07-28T21:53:51.493Z,1.00
2022-07-28T21:56:21.036Z,1.13
2022-07-28T21:58:49.849Z,1.00
2022-07-28T22:01:19.448Z,1.20
2022-07-28T22:03:49.992Z,1.00
2022-07-28T22:06:18.879Z,1.30
2022-07-28T22:08:50.335Z,1.00
2022-07-28T22:11:19.392Z,1.43
2022-07-28T22:13:48.208Z,1.10
2022-07-28T22:16:17.215Z,1.33
2022-07-28T22:18:46.116Z,1.37
2022-07-28T22:21:16.548Z,1.30
2022-07-28T22:23:45.320Z,1.17
2022-07-28T22:26:14.146Z,1.30
2022-07-28T22:28:42.971Z,1.10
2022-07-28T22:31:11.776Z,1.23
2022-07-28T22:33:40.670Z,1.10
2022-07-28T22:36:10.834Z,1.30
2022-07-28T22:38:41.418Z,1.30
2022-07-28T22:41:11.259Z,1.30
2022-07-28T22:43:39.991Z,1.23
2022-07-28T22:46:11.001Z,1.20
2022-07-28T22:48:41.087Z,1.07
2022-07-28T22:51:12.034Z,1.13
2022-07-28T22:53:42.715Z,1.10
2022-07-28T22:56:12.116Z,1.10
2022-07-28T22:58:41.351Z,0.97
2022-07-28T23:01:10.242Z,1.00
2022-07-28T23:03:39.521Z,1.00
2022-07-28T23:06:08.686Z,1.30
2022-07-28T23:08:37.753Z,1.07
2022-07-28T23:11:08.246Z,1.00
2022-07-28T23:13:37.121Z,1.20
2022-07-28T23:16:08.531Z,1.07
2022-07-28T23:18:39.744Z,1.23
2022-07-28T23:21:08.802Z,1.40
2022-07-28T23:23:37.825Z,1.30
2022-07-28T23:26:08.152Z,1.13
2022-07-28T23:28:40.745Z,1.20
2022-07-28T23:31:09.601Z,1.40
2022-07-28T23:33:54.283Z,1.00
2022-07-28T23:36:26.898Z,1.20
2022-07-28T23:38:57.794Z,1.43
2022-07-28T23:41:29.113Z,1.10
2022-07-28T23:43:57.995Z,1.30
2022-07-28T23:46:26.783Z,1.20
2022-07-28T23:48:55.760Z,1.00
2022-07-28T23:51:39.246Z,1.20
2022-07-28T23:54:15.753Z,1.10
2022-07-28T23:56:46.331Z,1.13
2022-07-28T23:59:15.138Z,1.30
